Rego Park, NY (11374)

2:53 AM EDT on May 01, 2017 (GMT -0400)
Rego Park | | Change Station

Elev 62 ft 40.71 °N, 73.86 °W | Updated 2 minutes ago

Overcast
Overcast
57.9 °F
Feels Like 57.9 °F
N
0.6
Wind Variable Wind from West
Gusts 1.9 mph

Today
High -- | Low -- °F
--% Chance of Precip.
Yesterday
High -- | Low -- °F
Precip. -- in
Pressure 30.10 in
Visibility 2.5 miles
Clouds Overcast 500 ft
Dew Point 49 °F
Humidity 71%
Rainfall 0.00 in
Snow Depth Not available.
5:53 AM 7:51 PM
Waxing Crescent, 30% visible
SPECI KLGA 010631Z 05008KT 2 1/2SM BR OVC005 11/09 A3010 RMK AO2 T01060089
Pressure 30.10 in
Visibility 2.5 miles
Clouds Overcast 500 ft
Dew Point 49 °F
Humidity 71%
Rainfall 0.00 in
Snow Depth Not available.
5:53 AM 7:51 PM
Waxing Crescent, 30% visible
SPECI KLGA 010631Z 05008KT 2 1/2SM BR OVC005 11/09 A3010 RMK AO2 T01060089

Get Severe Weather Alerts

Thanks for signing up!

Be on the lookout for a verification email in your inbox.

You'll start receiving the daily forecast at 8 AM.

×

10-Day Weather Forecast

Almanac

Astronomy

May. 01, 2017 Rise Set
Actual Time
Civil Twilight
Nautical Twilight
Astronomical Twilight
Moon
Length of Visible Light
Length of Day
Tomorrow will be .
, % of the Moon is Illuminated

Today's Extremes

State Highs State Lows

Community

WunderPhotos

WunderBlog® & News

Nearby

Air Quality

  Air Quality AQ Index Pollutant
Not available.

Snow Depth

Station Depth Elevation

Earthquake Activity

City Distance Mag. Time & Date
Minimum magnitude displayed is 2.5.

Coastal Water Temperatures

Place Temperature

Stations

Nearby Weather Stations

Station Location Temp. Windchill Dew Point Humidity Wind Precip. Elev Updated Type
                   

Watches & Warnings

There are currently no watches in effect.